sensor_id;sensor_type;location;lat;lon;timestamp;pressure;altitude;pressure_sealevel;temperature;humidity
46583;BME280;32309;48.858;8.252;2023-04-20T00:00:57;100369.44;;;5.81;65.09
46583;BME280;32309;48.858;8.252;2023-04-20T00:02:58;100367.69;;;5.81;64.68
46583;BME280;32309;48.858;8.252;2023-04-20T00:04:59;100356.63;;;5.79;64.88
46583;BME280;32309;48.858;8.252;2023-04-20T00:06:59;100351.69;;;5.73;64.64
46583;BME280;32309;48.858;8.252;2023-04-20T00:09:00;100348.41;;;5.70;65.48
46583;BME280;32309;48.858;8.252;2023-04-20T00:11:00;100352.66;;;5.71;64.75
46583;BME280;32309;48.858;8.252;2023-04-20T00:13:01;100346.63;;;5.72;65.03
46583;BME280;32309;48.858;8.252;2023-04-20T00:15:01;100344.81;;;5.74;64.38
46583;BME280;32309;48.858;8.252;2023-04-20T00:17:01;100335.41;;;5.73;65.16
46583;BME280;32309;48.858;8.252;2023-04-20T00:19:01;100343.97;;;5.73;64.90
46583;BME280;32309;48.858;8.252;2023-04-20T00:21:02;100332.81;;;5.74;65.86
46583;BME280;32309;48.858;8.252;2023-04-20T00:23:02;100329.28;;;5.77;65.50
46583;BME280;32309;48.858;8.252;2023-04-20T00:25:03;100333.56;;;5.76;65.84
46583;BME280;32309;48.858;8.252;2023-04-20T00:27:03;100322.53;;;5.74;65.39
46583;BME280;32309;48.858;8.252;2023-04-20T00:29:04;100318.25;;;5.73;64.68
46583;BME280;32309;48.858;8.252;2023-04-20T00:31:04;100314.41;;;5.61;64.80
46583;BME280;32309;48.858;8.252;2023-04-20T00:33:05;100317.09;;;5.58;65.06
46583;BME280;32309;48.858;8.252;2023-04-20T00:35:05;100313.94;;;5.50;64.96
46583;BME280;32309;48.858;8.252;2023-04-20T00:37:05;100311.69;;;5.41;65.87
46583;BME280;32309;48.858;8.252;2023-04-20T00:39:06;100302.38;;;5.38;66.34
46583;BME280;32309;48.858;8.252;2023-04-20T00:41:06;100301.41;;;5.41;67.23
46583;BME280;32309;48.858;8.252;2023-04-20T00:43:10;100300.47;;;5.43;66.93
46583;BME280;32309;48.858;8.252;2023-04-20T00:45:11;100300.59;;;5.40;65.36
46583;BME280;32309;48.858;8.252;2023-04-20T00:47:11;100295.59;;;5.36;66.47
46583;BME280;32309;48.858;8.252;2023-04-20T00:49:11;100293.03;;;5.36;67.03
46583;BME280;32309;48.858;8.252;2023-04-20T00:51:12;100289.69;;;5.33;67.13
46583;BME280;32309;48.858;8.252;2023-04-20T00:53:12;100284.31;;;5.40;67.25
46583;BME280;32309;48.858;8.252;2023-04-20T00:55:13;100291.06;;;5.42;67.05
46583;BME280;32309;48.858;8.252;2023-04-20T00:57:13;100288.50;;;5.42;66.98
46583;BME280;32309;48.858;8.252;2023-04-20T00:59:17;100285.72;;;5.48;66.34
46583;BME280;32309;48.858;8.252;2023-04-20T01:01:17;100285.78;;;5.47;65.76
46583;BME280;32309;48.858;8.252;2023-04-20T01:03:18;100286.63;;;5.47;65.67
46583;BME280;32309;48.858;8.252;2023-04-20T01:05:19;100285.56;;;5.53;66.02
46583;BME280;32309;48.858;8.252;2023-04-20T01:07:20;100276.94;;;5.54;65.73
46583;BME280;32309;48.858;8.252;2023-04-20T01:09:20;100270.25;;;5.50;65.90
46583;BME280;32309;48.858;8.252;2023-04-20T01:11:20;100273.75;;;5.47;66.06
46583;BME280;32309;48.858;8.252;2023-04-20T01:13:20;100265.22;;;5.47;67.16
46583;BME280;32309;48.858;8.252;2023-04-20T01:15:21;100263.47;;;5.47;66.94
46583;BME280;32309;48.858;8.252;2023-04-20T01:17:21;100264.34;;;5.48;66.00
46583;BME280;32309;48.858;8.252;2023-04-20T01:19:23;100259.19;;;5.48;66.82
46583;BME280;32309;48.858;8.252;2023-04-20T01:21:23;100253.19;;;5.47;66.30
46583;BME280;32309;48.858;8.252;2023-04-20T01:23:23;100251.53;;;5.46;66.92
46583;BME280;32309;48.858;8.252;2023-04-20T01:25:24;100242.97;;;5.46;66.63
46583;BME280;32309;48.858;8.252;2023-04-20T01:27:24;100239.63;;;5.44;66.98
46583;BME280;32309;48.858;8.252;2023-04-20T01:29:25;100244.78;;;5.44;66.66
46583;BME280;32309;48.858;8.252;2023-04-20T01:31:25;100237.16;;;5.41;66.97
46583;BME280;32309;48.858;8.252;2023-04-20T01:33:25;100238.97;;;5.39;67.45
46583;BME280;32309;48.858;8.252;2023-04-20T01:35:26;100234.94;;;5.31;66.60
46583;BME280;32309;48.858;8.252;2023-04-20T01:37:27;100228.00;;;5.33;66.40
46583;BME280;32309;48.858;8.252;2023-04-20T01:39:27;100227.16;;;5.33;66.42
46583;BME280;32309;48.858;8.252;2023-04-20T01:41:27;100226.38;;;5.31;67.06
46583;BME280;32309;48.858;8.252;2023-04-20T01:43:28;100220.50;;;5.27;67.08
46583;BME280;32309;48.858;8.252;2023-04-20T01:45:28;100223.03;;;5.29;67.22
46583;BME280;32309;48.858;8.252;2023-04-20T01:47:29;100223.97;;;5.26;66.70
46583;BME280;32309;48.858;8.252;2023-04-20T01:49:29;100221.47;;;5.25;67.68
46583;BME280;32309;48.858;8.252;2023-04-20T01:51:30;100214.59;;;5.25;67.67
46583;BME280;32309;48.858;8.252;2023-04-20T01:53:31;100215.50;;;5.24;67.42
46583;BME280;32309;48.858;8.252;2023-04-20T01:55:32;100216.53;;;5.19;66.89
46583;BME280;32309;48.858;8.252;2023-04-20T01:57:32;100210.69;;;5.15;67.23
46583;BME280;32309;48.858;8.252;2023-04-20T01:59:33;100215.84;;;5.15;67.67
46583;BME280;32309;48.858;8.252;2023-04-20T02:01:33;100208.94;;;5.15;68.18
46583;BME280;32309;48.858;8.252;2023-04-20T02:03:34;100217.66;;;5.11;67.40
46583;BME280;32309;48.858;8.252;2023-04-20T02:05:34;100210.78;;;5.12;67.93
46583;BME280;32309;48.858;8.252;2023-04-20T02:07:34;100208.28;;;5.10;67.73
46583;BME280;32309;48.858;8.252;2023-04-20T02:09:35;100214.28;;;5.09;67.52
46583;BME280;32309;48.858;8.252;2023-04-20T02:11:35;100214.28;;;5.11;67.82
46583;BME280;32309;48.858;8.252;2023-04-20T02:13:35;100218.59;;;5.09;67.76
46583;BME280;32309;48.858;8.252;2023-04-20T02:15:36;100214.34;;;5.08;68.02
46583;BME280;32309;48.858;8.252;2023-04-20T02:17:36;100206.56;;;5.11;67.71
46583;BME280;32309;48.858;8.252;2023-04-20T02:19:37;100203.03;;;5.13;67.16
46583;BME280;32309;48.858;8.252;2023-04-20T02:21:37;100197.09;;;5.11;66.50
46583;BME280;32309;48.858;8.252;2023-04-20T02:23:37;100201.41;;;5.11;67.26
46583;BME280;32309;48.858;8.252;2023-04-20T02:25:38;100193.94;;;5.05;67.01
46583;BME280;32309;48.858;8.252;2023-04-20T02:27:38;100191.69;;;4.95;66.76
46583;BME280;32309;48.858;8.252;2023-04-20T02:29:38;100187.25;;;4.75;67.48
46583;BME280;32309;48.858;8.252;2023-04-20T02:31:39;100183.25;;;4.66;67.19
46583;BME280;32309;48.858;8.252;2023-04-20T02:33:39;100176.88;;;4.53;67.87
46583;BME280;32309;48.858;8.252;2023-04-20T02:35:40;100180.53;;;4.46;68.81
46583;BME280;32309;48.858;8.252;2023-04-20T02:37:40;100176.38;;;4.42;68.51
46583;BME280;32309;48.858;8.252;2023-04-20T02:39:40;100170.31;;;4.44;68.61
46583;BME280;32309;48.858;8.252;2023-04-20T02:41:40;100172.88;;;4.44;67.82
46583;BME280;32309;48.858;8.252;2023-04-20T02:43:41;100169.56;;;4.41;67.47
46583;BME280;32309;48.858;8.252;2023-04-20T02:47:47;100167.19;;;4.36;67.59
46583;BME280;32309;48.858;8.252;2023-04-20T02:49:48;100165.56;;;4.33;68.25
46583;BME280;32309;48.858;8.252;2023-04-20T02:51:48;100168.28;;;4.29;67.81
46583;BME280;32309;48.858;8.252;2023-04-20T02:53:48;100169.34;;;4.22;67.89
46583;BME280;32309;48.858;8.252;2023-04-20T02:55:48;100166.16;;;4.15;68.21
46583;BME280;32309;48.858;8.252;2023-04-20T02:57:49;100163.06;;;4.05;68.01
46583;BME280;32309;48.858;8.252;2023-04-20T02:59:49;100165.19;;;3.92;68.41
46583;BME280;32309;48.858;8.252;2023-04-20T03:01:49;100160.28;;;3.85;68.16
46583;BME280;32309;48.858;8.252;2023-04-20T03:03:50;100162.91;;;3.83;68.17
46583;BME280;32309;48.858;8.252;2023-04-20T03:05:50;100162.97;;;3.81;68.15
46583;BME280;32309;48.858;8.252;2023-04-20T03:07:50;100160.34;;;3.83;68.06
46583;BME280;32309;48.858;8.252;2023-04-20T03:09:51;100167.94;;;3.86;69.30
46583;BME280;32309;48.858;8.252;2023-04-20T03:11:51;100160.97;;;3.90;69.09
46583;BME280;32309;48.858;8.252;2023-04-20T03:13:51;100167.59;;;3.97;68.37
46583;BME280;32309;48.858;8.252;2023-04-20T03:15:51;100159.19;;;3.92;68.33
46583;BME280;32309;48.858;8.252;2023-04-20T03:17:52;100157.72;;;3.85;68.51
46583;BME280;32309;48.858;8.252;2023-04-20T03:19:52;100158.72;;;3.80;68.59
46583;BME280;32309;48.858;8.252;2023-04-20T03:21:52;100159.69;;;3.76;68.54
46583;BME280;32309;48.858;8.252;2023-04-20T03:23:52;100154.59;;;3.75;68.76
46583;BME280;32309;48.858;8.252;2023-04-20T03:25:52;100156.44;;;3.71;69.04
46583;BME280;32309;48.858;8.252;2023-04-20T03:27:53;100154.66;;;3.73;69.06
46583;BME280;32309;48.858;8.252;2023-04-20T03:29:53;100153.00;;;3.72;68.99
46583;BME280;32309;48.858;8.252;2023-04-20T03:31:54;100152.84;;;3.77;68.93
46583;BME280;32309;48.858;8.252;2023-04-20T03:33:54;100157.50;;;3.92;69.34
46583;BME280;32309;48.858;8.252;2023-04-20T03:35:54;100150.38;;;4.00;68.57
46583;BME280;32309;48.858;8.252;2023-04-20T03:37:55;100156.19;;;4.06;69.16
46583;BME280;32309;48.858;8.252;2023-04-20T03:39:55;100151.00;;;4.07;69.69
46583;BME280;32309;48.858;8.252;2023-04-20T03:41:55;100151.75;;;4.11;69.16
46583;BME280;32309;48.858;8.252;2023-04-20T03:43:56;100149.28;;;4.08;69.15
46583;BME280;32309;48.858;8.252;2023-04-20T03:45:56;100147.22;;;3.92;69.46
46583;BME280;32309;48.858;8.252;2023-04-20T03:47:56;100146.38;;;3.92;69.63
46583;BME280;32309;48.858;8.252;2023-04-20T03:49:57;100141.13;;;3.96;70.18
46583;BME280;32309;48.858;8.252;2023-04-20T03:51:57;100141.13;;;3.96;69.62
46583;BME280;32309;48.858;8.252;2023-04-20T03:53:58;100141.41;;;3.87;69.36
46583;BME280;32309;48.858;8.252;2023-04-20T03:55:58;100136.91;;;3.94;69.79
46583;BME280;32309;48.858;8.252;2023-04-20T03:57:58;100142.69;;;4.00;69.56
46583;BME280;32309;48.858;8.252;2023-04-20T03:59:58;100131.44;;;4.05;69.52
46583;BME280;32309;48.858;8.252;2023-04-20T04:01:59;100133.13;;;4.06;69.86
46583;BME280;32309;48.858;8.252;2023-04-20T04:04:00;100146.06;;;4.01;69.62
46583;BME280;32309;48.858;8.252;2023-04-20T04:06:01;100131.59;;;4.00;69.83
46583;BME280;32309;48.858;8.252;2023-04-20T04:08:02;100139.31;;;3.98;69.69
46583;BME280;32309;48.858;8.252;2023-04-20T04:10:02;100134.47;;;3.89;69.41
46583;BME280;32309;48.858;8.252;2023-04-20T04:12:04;100133.66;;;3.89;69.60
46583;BME280;32309;48.858;8.252;2023-04-20T04:14:05;100134.69;;;3.83;69.43
46583;BME280;32309;48.858;8.252;2023-04-20T04:16:06;100137.56;;;3.74;69.45
46583;BME280;32309;48.858;8.252;2023-04-20T04:18:06;100135.28;;;3.64;69.42
46583;BME280;32309;48.858;8.252;2023-04-20T04:20:06;100130.34;;;3.58;69.96
46583;BME280;32309;48.858;8.252;2023-04-20T04:22:08;100136.09;;;3.65;69.90
46583;BME280;32309;48.858;8.252;2023-04-20T04:24:08;100135.00;;;3.74;69.59
46583;BME280;32309;48.858;8.252;2023-04-20T04:26:08;100133.16;;;3.77;70.37
46583;BME280;32309;48.858;8.252;2023-04-20T04:28:11;100133.91;;;3.81;70.55
46583;BME280;32309;48.858;8.252;2023-04-20T04:30:11;100139.78;;;3.85;70.97
46583;BME280;32309;48.858;8.252;2023-04-20T04:32:12;100136.34;;;3.86;71.00
46583;BME280;32309;48.858;8.252;2023-04-20T04:34:12;100139.72;;;3.86;70.63
46583;BME280;32309;48.858;8.252;2023-04-20T04:36:13;100142.22;;;3.88;70.45
46583;BME280;32309;48.858;8.252;2023-04-20T04:38:16;100144.03;;;3.86;70.24
46583;BME280;32309;48.858;8.252;2023-04-20T04:40:17;100142.28;;;3.86;70.58
46583;BME280;32309;48.858;8.252;2023-04-20T04:42:17;100156.78;;;3.87;70.60
46583;BME280;32309;48.858;8.252;2023-04-20T04:44:17;100155.94;;;3.87;70.84
46583;BME280;32309;48.858;8.252;2023-04-20T04:46:18;100148.22;;;3.88;70.60
46583;BME280;32309;48.858;8.252;2023-04-20T04:48:18;100133.66;;;3.89;70.25
46583;BME280;32309;48.858;8.252;2023-04-20T04:50:19;100142.34;;;3.85;70.01
46583;BME280;32309;48.858;8.252;2023-04-20T04:52:21;100146.53;;;3.87;70.49
46583;BME280;32309;48.858;8.252;2023-04-20T04:54:21;100144.66;;;3.92;69.72
46583;BME280;32309;48.858;8.252;2023-04-20T04:56:22;100136.88;;;3.95;70.16
46583;BME280;32309;48.858;8.252;2023-04-20T04:58:22;100135.81;;;4.01;69.10
46583;BME280;32309;48.858;8.252;2023-04-20T05:00:22;100145.19;;;4.02;69.52
46583;BME280;32309;48.858;8.252;2023-04-20T05:02:24;100137.50;;;4.02;69.53
46583;BME280;32309;48.858;8.252;2023-04-20T05:04:24;100133.94;;;4.06;69.23
46583;BME280;32309;48.858;8.252;2023-04-20T05:06:24;100139.88;;;4.08;69.29
46583;BME280;32309;48.858;8.252;2023-04-20T05:08:25;100143.38;;;4.06;69.35
46583;BME280;32309;48.858;8.252;2023-04-20T05:10:25;100141.75;;;4.03;69.62
46583;BME280;32309;48.858;8.252;2023-04-20T05:12:25;100139.25;;;4.02;69.72
46583;BME280;32309;48.858;8.252;2023-04-20T05:14:26;100145.34;;;3.97;69.87
46583;BME280;32309;48.858;8.252;2023-04-20T05:16:26;100145.25;;;4.00;69.70
46583;BME280;32309;48.858;8.252;2023-04-20T05:18:26;100134.25;;;3.97;69.35
46583;BME280;32309;48.858;8.252;2023-04-20T05:20:27;100133.94;;;4.06;69.26
46583;BME280;32309;48.858;8.252;2023-04-20T05:22:27;100131.19;;;4.12;69.44
46583;BME280;32309;48.858;8.252;2023-04-20T05:24:28;100130.50;;;4.07;69.40
46583;BME280;32309;48.858;8.252;2023-04-20T05:26:28;100135.88;;;3.99;69.50
46583;BME280;32309;48.858;8.252;2023-04-20T05:28:28;100136.16;;;3.90;69.96
46583;BME280;32309;48.858;8.252;2023-04-20T05:30:28;100136.09;;;3.93;69.87
46583;BME280;32309;48.858;8.252;2023-04-20T05:32:29;100132.66;;;3.93;69.89
46583;BME280;32309;48.858;8.252;2023-04-20T05:34:30;100131.22;;;3.86;70.05
46583;BME280;32309;48.858;8.252;2023-04-20T05:36:31;100128.63;;;3.86;69.76
46583;BME280;32309;48.858;8.252;2023-04-20T05:38:32;100133.72;;;3.87;69.86
46583;BME280;32309;48.858;8.252;2023-04-20T05:40:33;100122.53;;;3.90;70.09
46583;BME280;32309;48.858;8.252;2023-04-20T05:42:34;100126.16;;;3.82;70.27
46583;BME280;32309;48.858;8.252;2023-04-20T05:44:34;100130.28;;;3.87;70.34
46583;BME280;32309;48.858;8.252;2023-04-20T05:46:35;100124.97;;;3.93;70.43
46583;BME280;32309;48.858;8.252;2023-04-20T05:48:36;100114.59;;;3.97;70.33
46583;BME280;32309;48.858;8.252;2023-04-20T05:50:36;100121.28;;;4.02;70.24
46583;BME280;32309;48.858;8.252;2023-04-20T05:52:36;100120.19;;;4.09;70.70
46583;BME280;32309;48.858;8.252;2023-04-20T05:54:37;100121.41;;;4.24;70.25
46583;BME280;32309;48.858;8.252;2023-04-20T05:56:37;100122.50;;;4.42;70.16
46583;BME280;32309;48.858;8.252;2023-04-20T05:58:37;100112.66;;;4.55;69.39
46583;BME280;32309;48.858;8.252;2023-04-20T06:00:40;100114.00;;;4.65;69.20
46583;BME280;32309;48.858;8.252;2023-04-20T06:05:32;100116.06;;;5.03;69.81
46583;BME280;32309;48.858;8.252;2023-04-20T06:10:43;100111.94;;;5.44;68.36
46583;BME280;32309;48.858;8.252;2023-04-20T06:12:42;100118.81;;;5.66;68.90
46583;BME280;32309;48.858;8.252;2023-04-20T06:14:43;100116.41;;;5.83;67.84
46583;BME280;32309;48.858;8.252;2023-04-20T06:16:43;100107.25;;;5.98;67.63
46583;BME280;32309;48.858;8.252;2023-04-20T06:18:43;100107.53;;;6.13;67.40
46583;BME280;32309;48.858;8.252;2023-04-20T06:20:46;100109.72;;;6.22;67.30
46583;BME280;32309;48.858;8.252;2023-04-20T06:22:46;100105.34;;;6.24;67.64
46583;BME280;32309;48.858;8.252;2023-04-20T06:24:47;100106.19;;;6.25;68.16
46583;BME280;32309;48.858;8.252;2023-04-20T06:26:47;100102.63;;;6.27;67.97
46583;BME280;32309;48.858;8.252;2023-04-20T06:28:47;100098.31;;;6.28;67.37
46583;BME280;32309;48.858;8.252;2023-04-20T06:30:50;100099.59;;;6.38;68.02
46583;BME280;32309;48.858;8.252;2023-04-20T06:32:51;100108.41;;;6.53;67.17
46583;BME280;32309;48.858;8.252;2023-04-20T06:34:51;100099.03;;;6.52;67.22
46583;BME280;32309;48.858;8.252;2023-04-20T06:36:51;100098.25;;;6.50;67.48
46583;BME280;32309;48.858;8.252;2023-04-20T06:38:52;100094.94;;;6.46;68.49
46583;BME280;32309;48.858;8.252;2023-04-20T06:40:53;100098.31;;;6.48;67.57
46583;BME280;32309;48.858;8.252;2023-04-20T06:42:53;100097.28;;;6.53;67.55
46583;BME280;32309;48.858;8.252;2023-04-20T06:44:53;100090.97;;;6.60;67.09
46583;BME280;32309;48.858;8.252;2023-04-20T06:46:55;100098.22;;;6.71;65.58
46583;BME280;32309;48.858;8.252;2023-04-20T06:48:55;100090.41;;;6.72;64.64
46583;BME280;32309;48.858;8.252;2023-04-20T06:50:56;100092.72;;;6.78;63.96
46583;BME280;32309;48.858;8.252;2023-04-20T06:52:56;100088.53;;;6.76;63.85
46583;BME280;32309;48.858;8.252;2023-04-20T06:54:57;100090.16;;;6.78;63.72
46583;BME280;32309;48.858;8.252;2023-04-20T06:57:01;100094.53;;;6.76;63.80
46583;BME280;32309;48.858;8.252;2023-04-20T06:59:01;100093.69;;;6.76;63.96
46583;BME280;32309;48.858;8.252;2023-04-20T07:01:01;100090.16;;;6.78;64.22
46583;BME280;32309;48.858;8.252;2023-04-20T07:03:02;100098.44;;;6.85;63.58
46583;BME280;32309;48.858;8.252;2023-04-20T07:05:02;100096.53;;;6.89;63.48
46583;BME280;32309;48.858;8.252;2023-04-20T07:07:02;100087.84;;;6.91;63.63
46583;BME280;32309;48.858;8.252;2023-04-20T07:09:02;100089.25;;;6.98;62.74
46583;BME280;32309;48.858;8.252;2023-04-20T07:11:03;100091.81;;;6.98;62.52
46583;BME280;32309;48.858;8.252;2023-04-20T07:13:04;100090.91;;;6.99;62.48
46583;BME280;32309;48.858;8.252;2023-04-20T07:15:05;100084.72;;;7.04;62.09
46583;BME280;32309;48.858;8.252;2023-04-20T07:17:06;100089.03;;;7.03;62.54
46583;BME280;32309;48.858;8.252;2023-04-20T07:19:06;100084.72;;;7.04;62.35
46583;BME280;32309;48.858;8.252;2023-04-20T07:21:07;100082.22;;;7.02;62.38
46583;BME280;32309;48.858;8.252;2023-04-20T07:23:07;100075.47;;;6.99;63.23
46583;BME280;32309;48.858;8.252;2023-04-20T07:25:08;100072.38;;;7.10;62.21
46583;BME280;32309;48.858;8.252;2023-04-20T07:27:09;100070.72;;;7.09;62.25
46583;BME280;32309;48.858;8.252;2023-04-20T07:29:09;100072.31;;;7.12;62.35
46583;BME280;32309;48.858;8.252;2023-04-20T07:31:10;100070.19;;;7.20;62.14
46583;BME280;32309;48.858;8.252;2023-04-20T07:33:10;100066.03;;;7.18;62.56
46583;BME280;32309;48.858;8.252;2023-04-20T07:35:11;100069.50;;;7.16;62.90
46583;BME280;32309;48.858;8.252;2023-04-20T07:37:11;100068.25;;;7.25;62.79
46583;BME280;32309;48.858;8.252;2023-04-20T07:39:11;100061.28;;;7.27;62.79
46583;BME280;32309;48.858;8.252;2023-04-20T07:41:12;100066.28;;;7.30;63.05
46583;BME280;32309;48.858;8.252;2023-04-20T07:43:12;100059.78;;;7.41;62.68
46583;BME280;32309;48.858;8.252;2023-04-20T07:45:12;100060.63;;;7.41;63.24
46583;BME280;32309;48.858;8.252;2023-04-20T07:47:12;100062.75;;;7.50;62.20
46583;BME280;32309;48.858;8.252;2023-04-20T07:49:13;100050.84;;;7.48;62.98
46583;BME280;32309;48.858;8.252;2023-04-20T07:51:13;100056.78;;;7.50;64.15
46583;BME280;32309;48.858;8.252;2023-04-20T07:53:13;100059.72;;;7.60;64.26
46583;BME280;32309;48.858;8.252;2023-04-20T07:55:14;100051.53;;;7.69;64.56
46583;BME280;32309;48.858;8.252;2023-04-20T07:57:16;100051.56;;;7.87;63.47
46583;BME280;32309;48.858;8.252;2023-04-20T07:59:16;100045.41;;;7.89;62.76
46583;BME280;32309;48.858;8.252;2023-04-20T08:01:16;100053.53;;;7.99;61.99
46583;BME280;32309;48.858;8.252;2023-04-20T08:03:17;100055.34;;;7.97;61.96
46583;BME280;32309;48.858;8.252;2023-04-20T08:05:17;100044.19;;;7.96;62.35
46583;BME280;32309;48.858;8.252;2023-04-20T08:07:18;100046.78;;;7.96;62.67
46583;BME280;32309;48.858;8.252;2023-04-20T08:09:18;100045.63;;;8.02;63.37
46583;BME280;32309;48.858;8.252;2023-04-20T08:11:19;100048.50;;;8.13;62.47
46583;BME280;32309;48.858;8.252;2023-04-20T08:13:20;100047.44;;;8.18;61.73
46583;BME280;32309;48.858;8.252;2023-04-20T08:15:20;100033.53;;;8.20;61.78
46583;BME280;32309;48.858;8.252;2023-04-20T08:17:21;100038.47;;;8.25;62.80
46583;BME280;32309;48.858;8.252;2023-04-20T08:19:23;100030.31;;;8.32;62.13
46583;BME280;32309;48.858;8.252;2023-04-20T08:21:24;100029.22;;;8.37;61.11
46583;BME280;32309;48.858;8.252;2023-04-20T08:23:25;100034.56;;;8.33;61.92
46583;BME280;32309;48.858;8.252;2023-04-20T08:25:26;100037.81;;;8.37;62.39
46583;BME280;32309;48.858;8.252;2023-04-20T08:27:27;100025.66;;;8.39;62.27
46583;BME280;32309;48.858;8.252;2023-04-20T08:29:29;100029.44;;;8.49;61.92
46583;BME280;32309;48.858;8.252;2023-04-20T08:31:30;100027.31;;;8.58;61.98
46583;BME280;32309;48.858;8.252;2023-04-20T08:33:31;100028.88;;;8.60;61.27
46583;BME280;32309;48.858;8.252;2023-04-20T08:35:31;100028.66;;;8.65;61.57
46583;BME280;32309;48.858;8.252;2023-04-20T08:37:31;100025.41;;;8.77;59.87
46583;BME280;32309;48.858;8.252;2023-04-20T08:39:31;100024.00;;;8.88;58.78
46583;BME280;32309;48.858;8.252;2023-04-20T08:41:32;100028.47;;;8.84;59.43
46583;BME280;32309;48.858;8.252;2023-04-20T08:43:32;100018.81;;;8.88;58.84
46583;BME280;32309;48.858;8.252;2023-04-20T08:45:33;100013.97;;;8.81;58.87
46583;BME280;32309;48.858;8.252;2023-04-20T08:47:34;100015.50;;;8.86;59.40
46583;BME280;32309;48.858;8.252;2023-04-20T08:49:34;100011.97;;;8.87;60.02
46583;BME280;32309;48.858;8.252;2023-04-20T08:51:35;100014.72;;;8.83;60.15
46583;BME280;32309;48.858;8.252;2023-04-20T08:53:35;100013.06;;;8.98;60.08
46583;BME280;32309;48.858;8.252;2023-04-20T08:55:35;100022.97;;;9.06;59.94
46583;BME280;32309;48.858;8.252;2023-04-20T08:57:36;100023.13;;;9.19;58.19
46583;BME280;32309;48.858;8.252;2023-04-20T08:59:36;100021.13;;;9.24;58.71
46583;BME280;32309;48.858;8.252;2023-04-20T09:01:37;100022.13;;;9.22;59.02
46583;BME280;32309;48.858;8.252;2023-04-20T09:03:39;100017.53;;;9.27;59.10
46583;BME280;32309;48.858;8.252;2023-04-20T09:05:42;100008.09;;;9.26;58.97
46583;BME280;32309;48.858;8.252;2023-04-20T09:07:50;100008.41;;;9.36;58.85
46583;BME280;32309;48.858;8.252;2023-04-20T09:09:55;100007.97;;;9.43;58.92
46583;BME280;32309;48.858;8.252;2023-04-20T09:12:00;100003.84;;;9.55;58.24
46583;BME280;32309;48.858;8.252;2023-04-20T09:14:03;99997.09;;;9.53;59.24
46583;BME280;32309;48.858;8.252;2023-04-20T09:16:09;99996.13;;;9.70;57.35
46583;BME280;32309;48.858;8.252;2023-04-20T09:18:11;99987.19;;;9.75;57.85
46583;BME280;32309;48.858;8.252;2023-04-20T09:20:25;99995.50;;;9.80;56.84
46583;BME280;32309;48.858;8.252;2023-04-20T09:22:30;99994.59;;;9.81;56.36
46583;BME280;32309;48.858;8.252;2023-04-20T09:24:32;99989.03;;;9.73;56.89
46583;BME280;32309;48.858;8.252;2023-04-20T09:26:36;99979.91;;;9.82;56.12
46583;BME280;32309;48.858;8.252;2023-04-20T09:28:37;99980.38;;;10.03;56.05
46583;BME280;32309;48.858;8.252;2023-04-20T09:30:38;99981.31;;;10.16;54.27
46583;BME280;32309;48.858;8.252;2023-04-20T09:32:40;99977.41;;;10.09;54.44
46583;BME280;32309;48.858;8.252;2023-04-20T09:34:41;99977.94;;;10.00;54.57
46583;BME280;32309;48.858;8.252;2023-04-20T09:36:43;99975.75;;;9.94;54.99
46583;BME280;32309;48.858;8.252;2023-04-20T09:38:45;99966.69;;;10.01;55.76
46583;BME280;32309;48.858;8.252;2023-04-20T09:40:45;99974.56;;;10.14;55.56
46583;BME280;32309;48.858;8.252;2023-04-20T09:42:47;99965.38;;;10.37;53.58
46583;BME280;32309;48.858;8.252;2023-04-20T09:44:48;99961.97;;;10.37;54.49
46583;BME280;32309;48.858;8.252;2023-04-20T09:46:49;99961.13;;;10.51;52.78
46583;BME280;32309;48.858;8.252;2023-04-20T09:48:50;99962.78;;;10.52;52.98
46583;BME280;32309;48.858;8.252;2023-04-20T09:50:51;99964.66;;;10.49;51.35
46583;BME280;32309;48.858;8.252;2023-04-20T09:52:52;99961.78;;;10.40;53.14
46583;BME280;32309;48.858;8.252;2023-04-20T09:54:53;99962.72;;;10.39;51.90
46583;BME280;32309;48.858;8.252;2023-04-20T09:56:53;99966.56;;;10.31;52.07
46583;BME280;32309;48.858;8.252;2023-04-20T09:58:54;99962.50;;;10.27;52.56
46583;BME280;32309;48.858;8.252;2023-04-20T10:00:55;99965.94;;;10.28;52.58
46583;BME280;32309;48.858;8.252;2023-04-20T10:02:55;99962.63;;;10.26;53.19
46583;BME280;32309;48.858;8.252;2023-04-20T10:04:56;99963.63;;;10.23;52.66
46583;BME280;32309;48.858;8.252;2023-04-20T10:06:58;99961.97;;;10.22;52.84
46583;BME280;32309;48.858;8.252;2023-04-20T10:09:03;99959.72;;;10.30;53.19
46583;BME280;32309;48.858;8.252;2023-04-20T10:11:05;99961.50;;;10.30;53.04
46583;BME280;32309;48.858;8.252;2023-04-20T10:13:05;99967.78;;;10.26;53.09
46583;BME280;32309;48.858;8.252;2023-04-20T10:15:06;99960.22;;;10.23;52.75
46583;BME280;32309;48.858;8.252;2023-04-20T10:17:07;99962.72;;;10.24;53.84
46583;BME280;32309;48.858;8.252;2023-04-20T10:19:08;99959.47;;;10.21;54.46
46583;BME280;32309;48.858;8.252;2023-04-20T10:21:09;99961.59;;;10.28;53.25
46583;BME280;32309;48.858;8.252;2023-04-20T10:23:09;99960.13;;;10.24;54.32
46583;BME280;32309;48.858;8.252;2023-04-20T10:25:14;99944.84;;;10.20;54.56
46583;BME280;32309;48.858;8.252;2023-04-20T10:27:17;99950.22;;;10.16;55.04
46583;BME280;32309;48.858;8.252;2023-04-20T10:29:22;99950.69;;;10.23;55.02
46583;BME280;32309;48.858;8.252;2023-04-20T10:31:33;99951.59;;;10.22;55.08
46583;BME280;32309;48.858;8.252;2023-04-20T10:33:34;99956.88;;;10.21;55.83
46583;BME280;32309;48.858;8.252;2023-04-20T10:37:48;99957.06;;;10.18;56.00
46583;BME280;32309;48.858;8.252;2023-04-20T10:39:49;99946.72;;;10.32;56.39
46583;BME280;32309;48.858;8.252;2023-04-20T10:41:53;99950.41;;;10.42;55.46
46583;BME280;32309;48.858;8.252;2023-04-20T10:43:54;99954.00;;;10.40;56.37
46583;BME280;32309;48.858;8.252;2023-04-20T10:46:14;99952.06;;;10.43;56.30
46583;BME280;32309;48.858;8.252;2023-04-20T10:48:17;99948.34;;;10.47;55.52
46583;BME280;32309;48.858;8.252;2023-04-20T10:50:18;99961.03;;;10.52;56.44